Time;durP1;ratioP1;P1;durP2;ratioP2;P2;SDS_P1;SDS_P2;PMS_P1;PMS_P2;Temp;Humidity;BMP_temperature;BMP_pressure;BME280_temperature;BME280_humidity;BME280_pressure;Samples;Min_cycle;Max_cycle;Signal;HPM_P1;HPM_P2
2021/01/13 00:00:51;;;;;;;26.42;22.05;;;21.40;53.30;;;;;;4963703;28;20648;-58
2021/01/13 00:03:21;;;;;;;26.38;22.35;;;21.40;53.30;;;;;;4968589;28;21120;-55
2021/01/13 00:05:52;;;;;;;23.73;20.33;;;21.30;53.20;;;;;;4968381;28;20320;-55
2021/01/13 00:08:22;;;;;;;23.75;19.48;;;21.40;53.30;;;;;;4964789;28;20231;-56
2021/01/13 00:10:54;;;;;;;23.23;18.75;;;21.40;53.10;;;;;;4966604;28;20240;-52
2021/01/13 00:13:24;;;;;;;22.33;18.27;;;21.40;52.90;;;;;;4967256;28;20228;-54
2021/01/13 00:15:55;;;;;;;20.77;17.38;;;21.40;52.90;;;;;;4964930;28;20312;-53
2021/01/13 00:18:25;;;;;;;22.85;18.73;;;21.40;52.90;;;;;;4957544;28;20304;-53
2021/01/13 00:20:56;;;;;;;20.70;17.98;;;21.40;52.70;;;;;;4962699;28;20256;-52
2021/01/13 00:23:27;;;;;;;24.13;18.50;;;21.40;52.70;;;;;;4963358;28;20240;-52
2021/01/13 00:25:58;;;;;;;25.27;20.38;;;21.40;52.70;;;;;;4960510;28;20267;-50
2021/01/13 00:28:29;;;;;;;24.52;18.83;;;21.40;52.60;;;;;;4967362;28;20708;-50
2021/01/13 00:31:00;;;;;;;27.05;19.15;;;21.40;52.60;;;;;;4965115;28;20328;-50
2021/01/13 00:33:30;;;;;;;24.63;19.73;;;21.40;52.60;;;;;;5000857;28;20324;-56
2021/01/13 00:36:01;;;;;;;24.90;19.30;;;21.40;52.60;;;;;;4964323;28;20229;-52
2021/01/13 00:38:31;;;;;;;23.77;19.23;;;21.40;52.70;;;;;;4966992;28;20789;-53
2021/01/13 00:41:04;;;;;;;23.80;19.55;;;21.40;52.80;;;;;;4965970;28;20232;-56
2021/01/13 00:43:34;;;;;;;22.77;19.10;;;21.40;52.80;;;;;;4965738;28;20316;-57
2021/01/13 00:46:04;;;;;;;23.50;19.75;;;21.40;52.90;;;;;;4960242;28;20700;-55
2021/01/13 00:48:35;;;;;;;23.10;18.25;;;21.50;53.00;;;;;;4968137;28;20666;-53
2021/01/13 00:51:06;;;;;;;23.67;19.42;;;21.50;53.00;;;;;;4969865;28;20293;-54
2021/01/13 00:53:37;;;;;;;22.25;19.08;;;21.50;53.00;;;;;;4970812;28;20312;-53
2021/01/13 00:56:08;;;;;;;25.73;20.88;;;21.60;53.20;;;;;;4969405;28;20239;-54
2021/01/13 00:58:39;;;;;;;26.73;22.85;;;21.60;53.10;;;;;;4969049;28;20243;-52
2021/01/13 01:01:10;;;;;;;34.10;26.38;;;21.60;53.00;;;;;;4967389;28;20228;-52
2021/01/13 01:03:41;;;;;;;31.17;25.17;;;21.70;52.80;;;;;;4965366;28;20228;-52
2021/01/13 01:06:14;;;;;;;35.30;27.98;;;21.70;52.60;;;;;;4965029;28;20697;-52
2021/01/13 01:08:44;;;;;;;29.83;23.92;;;21.70;52.40;;;;;;4967938;28;20343;-52
2021/01/13 01:11:16;;;;;;;27.90;22.67;;;21.80;52.40;;;;;;4927518;28;20230;-55
2021/01/13 01:13:47;;;;;;;25.10;19.55;;;21.80;52.40;;;;;;4927588;28;20312;-55
2021/01/13 01:16:17;;;;;;;24.70;21.15;;;21.90;52.40;;;;;;4927230;28;20368;-55
2021/01/13 01:18:49;;;;;;;23.67;19.83;;;21.90;52.40;;;;;;4927021;28;20238;-53
2021/01/13 01:21:19;;;;;;;22.30;19.90;;;21.90;52.30;;;;;;4925809;28;20242;-55
2021/01/13 01:23:50;;;;;;;23.98;19.67;;;22.00;52.20;;;;;;4928439;28;20249;-53
2021/01/13 01:26:21;;;;;;;23.02;20.58;;;22.00;52.00;;;;;;4926635;28;20238;-53
2021/01/13 01:28:52;;;;;;;22.80;18.10;;;22.10;51.70;;;;;;4927542;29;20238;-53
2021/01/13 01:31:22;;;;;;;23.48;19.00;;;22.10;52.00;;;;;;4927249;29;20230;-51
2021/01/13 01:33:53;;;;;;;22.80;18.63;;;22.20;51.60;;;;;;4924781;28;20647;-51
2021/01/13 01:36:24;;;;;;;21.00;18.33;;;22.20;51.20;;;;;;4922134;28;20234;-50
2021/01/13 01:38:54;;;;;;;21.42;18.42;;;22.30;51.20;;;;;;4926719;28;20257;-50
2021/01/13 01:41:26;;;;;;;21.02;18.17;;;22.30;51.20;;;;;;4930159;28;20827;-49
2021/01/13 01:43:57;;;;;;;22.10;18.95;;;22.40;51.20;;;;;;4966060;28;20228;-53
2021/01/13 01:46:27;;;;;;;29.42;20.05;;;22.40;50.80;;;;;;4966421;28;20575;-50
2021/01/13 01:48:58;;;;;;;24.00;18.85;;;22.50;50.60;;;;;;4965894;28;20237;-56
2021/01/13 01:51:31;;;;;;;23.20;18.33;;;22.60;50.60;;;;;;4961422;28;20235;-53
2021/01/13 01:54:13;;;;;;;27.33;18.35;;;22.60;50.30;;;;;;4961824;28;20251;-53
2021/01/13 01:56:45;;;;;;;23.30;18.08;;;22.70;50.20;;;;;;4964814;28;20240;-56
2021/01/13 01:59:16;;;;;;;22.98;18.35;;;22.80;50.20;;;;;;4963574;28;20233;-56
2021/01/13 02:01:46;;;;;;;24.25;20.08;;;22.80;49.90;;;;;;4965257;28;20697;-53
2021/01/13 02:04:18;;;;;;;23.90;19.65;;;22.90;49.60;;;;;;4956972;28;20249;-55
2021/01/13 02:07:26;;;;;;;24.10;20.05;;;23.00;49.30;;;;;;4957986;28;20236;-56
2021/01/13 02:09:58;;;;;;;23.38;18.88;;;23.10;48.80;;;;;;4962739;28;20239;-49
2021/01/13 02:12:31;;;;;;;21.92;18.85;;;23.20;49.00;;;;;;4967530;28;20240;-52
2021/01/13 02:15:01;;;;;;;25.00;19.52;;;23.20;48.80;;;;;;4963779;28;20694;-53
2021/01/13 02:17:36;;;;;;;19.33;16.77;;;23.30;48.80;;;;;;4963106;28;20237;-54
2021/01/13 02:20:16;;;;;;;28.40;16.65;;;23.30;48.60;;;;;;4968958;28;20228;-54
2021/01/13 02:23:06;;;;;;;24.63;20.40;;;23.40;48.60;;;;;;4969996;28;20260;-51
2021/01/13 02:26:05;;;;;;;20.20;17.15;;;23.50;47.90;;;;;;4965993;28;20237;-53
2021/01/13 02:28:59;;;;;;;17.98;16.10;;;23.50;47.90;;;;;;4965895;28;20339;-51
2021/01/13 02:31:50;;;;;;;19.52;16.60;;;23.60;47.80;;;;;;4966847;28;20247;-51
2021/01/13 02:34:39;;;;;;;18.73;16.75;;;23.70;47.60;;;;;;4965885;28;20747;-56
2021/01/13 02:37:41;;;;;;;19.80;16.60;;;23.70;47.40;;;;;;4972605;28;20776;-54
2021/01/13 02:40:19;;;;;;;19.27;16.42;;;23.90;46.60;;;;;;4935451;28;20232;-52
2021/01/13 02:43:02;;;;;;;18.90;16.25;;;24.00;47.30;;;;;;4964830;28;20257;-55
2021/01/13 02:45:36;;;;;;;20.67;18.15;;;24.00;47.10;;;;;;4965085;28;20248;-54
2021/01/13 02:48:11;;;;;;;20.23;18.13;;;24.10;46.80;;;;;;4970510;28;20236;-53
2021/01/13 02:50:43;;;;;;;21.00;17.00;;;24.10;46.80;;;;;;4961875;28;20236;-54
2021/01/13 02:53:52;;;;;;;20.42;18.25;;;24.20;46.50;;;;;;4963850;28;20233;-56
2021/01/13 02:56:43;;;;;;;19.42;17.33;;;24.30;46.30;;;;;;5037412;28;20380;-54
2021/01/13 02:59:15;;;;;;;22.35;17.63;;;24.40;45.70;;;;;;5035569;28;20320;-52
2021/01/13 03:01:46;;;;;;;20.42;15.95;;;24.50;45.80;;;;;;5029632;28;20726;-56
2021/01/13 03:04:17;;;;;;;17.10;15.18;;;24.60;45.20;;;;;;5028487;28;20252;-53
2021/01/13 03:06:48;;;;;;;20.15;15.45;;;24.60;45.50;;;;;;5035770;28;20237;-53
2021/01/13 03:09:18;;;;;;;17.88;15.77;;;24.70;45.50;;;;;;5032549;28;20244;-54
2021/01/13 03:11:49;;;;;;;20.42;15.88;;;24.70;45.20;;;;;;5037839;28;20313;-52
2021/01/13 03:14:21;;;;;;;18.98;17.02;;;24.80;45.30;;;;;;5037633;28;20229;-56
2021/01/13 03:17:13;;;;;;;21.35;16.30;;;24.80;45.10;;;;;;5033784;28;20315;-56
2021/01/13 03:20:28;;;;;;;18.58;16.67;;;25.00;45.30;;;;;;5020839;28;20372;-51
2021/01/13 03:23:05;;;;;;;22.88;17.45;;;25.00;45.10;;;;;;4993634;28;20304;-51
2021/01/13 03:25:38;;;;;;;20.70;16.85;;;25.10;44.60;;;;;;4965527;28;20240;-53
2021/01/13 03:28:08;;;;;;;18.63;16.17;;;25.20;44.40;;;;;;4962650;28;20778;-54
2021/01/13 03:30:39;;;;;;;19.42;17.05;;;25.30;44.80;;;;;;4962462;28;20236;-52
2021/01/13 03:33:44;;;;;;;18.90;15.75;;;25.30;44.80;;;;;;4980728;28;20246;-56
2021/01/13 03:36:20;;;;;;;20.08;17.98;;;25.40;44.60;;;;;;4927092;28;20305;-54
2021/01/13 03:39:06;;;;;;;20.52;16.88;;;25.50;44.20;;;;;;4975533;28;20326;-54
2021/01/13 03:42:07;;;;;;;23.40;16.23;;;25.60;44.40;;;;;;4979868;28;20270;-53
2021/01/13 03:44:38;;;;;;;17.70;13.75;;;25.60;44.00;;;;;;4973668;28;20227;-51
2021/01/13 03:47:47;;;;;;;16.35;14.38;;;25.70;43.90;;;;;;4975041;28;20240;-50
2021/01/13 03:50:21;;;;;;;16.08;14.25;;;25.80;43.90;;;;;;4978354;28;20228;-55
2021/01/13 03:53:00;;;;;;;16.40;14.70;;;25.90;43.60;;;;;;4976478;28;20235;-54
2021/01/13 03:55:31;;;;;;;15.27;13.60;;;25.90;43.60;;;;;;4983116;28;20600;-51
2021/01/13 03:58:33;;;;;;;17.85;14.50;;;25.90;43.50;;;;;;4975268;28;20801;-51
2021/01/13 04:01:22;;;;;;;19.25;16.45;;;26.10;43.60;;;;;;4945085;28;20314;-57
2021/01/13 04:04:00;;;;;;;20.58;15.40;;;26.10;43.20;;;;;;4959245;28;20604;-56
2021/01/13 04:06:32;;;;;;;18.45;15.60;;;26.20;43.40;;;;;;4956460;28;20231;-54
2021/01/13 04:09:04;;;;;;;17.63;15.73;;;26.30;43.40;;;;;;5040964;28;20311;-54
2021/01/13 04:11:34;;;;;;;18.70;16.10;;;26.30;42.80;;;;;;5038344;28;20233;-54
2021/01/13 04:14:05;;;;;;;17.92;16.02;;;26.40;42.60;;;;;;4919302;29;20261;-55
2021/01/13 04:16:38;;;;;;;18.88;17.05;;;26.50;42.40;;;;;;4920947;29;20348;-53
2021/01/13 04:19:08;;;;;;;16.10;14.50;;;26.50;42.60;;;;;;4920829;29;20238;-54
2021/01/13 04:21:39;;;;;;;17.55;15.65;;;26.60;42.90;;;;;;4921439;29;20249;-52
2021/01/13 04:24:13;;;;;;;18.23;16.42;;;26.70;42.80;;;;;;4921610;29;21028;-54
2021/01/13 04:26:44;;;;;;;19.77;17.73;;;26.70;42.20;;;;;;4924047;29;20241;-52
2021/01/13 04:29:15;;;;;;;19.17;16.20;;;26.80;42.10;;;;;;4923657;29;20317;-51
2021/01/13 04:31:46;;;;;;;17.00;15.27;;;26.90;42.60;;;;;;4924777;29;20238;-54
2021/01/13 04:34:18;;;;;;;18.60;16.63;;;27.00;42.50;;;;;;4920474;29;20238;-54
2021/01/13 04:36:51;;;;;;;17.77;15.88;;;27.00;42.40;;;;;;4924494;29;20685;-59
2021/01/13 04:39:22;;;;;;;19.85;17.52;;;27.10;42.20;;;;;;5002158;28;20244;-52
2021/01/13 04:42:02;;;;;;;21.05;16.70;;;27.20;42.10;;;;;;4979968;28;20665;-53
2021/01/13 04:44:34;;;;;;;17.10;15.30;;;27.30;41.80;;;;;;4967342;28;20330;-58
2021/01/13 04:47:09;;;;;;;16.85;15.10;;;27.30;41.70;;;;;;4970486;28;20260;-55
2021/01/13 04:49:40;;;;;;;15.85;14.05;;;27.40;41.60;;;;;;4965219;28;20232;-52
2021/01/13 04:52:18;;;;;;;20.50;15.32;;;27.40;41.60;;;;;;4966275;28;20332;-53
2021/01/13 04:54:50;;;;;;;18.35;16.45;;;27.50;41.40;;;;;;5038393;28;20261;-51
2021/01/13 04:57:49;;;;;;;16.15;13.68;;;27.60;41.10;;;;;;5039933;28;20325;-52
2021/01/13 05:00:44;;;;;;;18.10;14.82;;;27.70;41.40;;;;;;5013329;28;20318;-54
2021/01/13 05:03:38;;;;;;;18.80;14.27;;;27.70;41.20;;;;;;4994616;28;20649;-52
2021/01/13 05:06:53;;;;;;;15.75;13.85;;;27.80;41.60;;;;;;5002431;28;20506;-52
2021/01/13 05:09:23;;;;;;;16.85;15.15;;;27.90;41.20;;;;;;4957950;28;20305;-55
2021/01/13 05:11:55;;;;;;;16.80;15.10;;;28.00;40.90;;;;;;4982148;28;20240;-51
2021/01/13 05:14:25;;;;;;;18.13;16.02;;;28.00;40.70;;;;;;4959960;28;20233;-56
2021/01/13 05:17:21;;;;;;;17.98;15.95;;;28.10;40.80;;;;;;4920837;29;20747;-54
2021/01/13 05:20:18;;;;;;;15.43;13.95;;;28.20;40.70;;;;;;4853483;29;20237;-53
2021/01/13 05:22:49;;;;;;;18.10;16.33;;;28.20;40.80;;;;;;4834113;29;20256;-51
2021/01/13 05:25:26;;;;;;;17.98;16.17;;;28.30;40.00;;;;;;4910031;29;20246;-49
2021/01/13 05:28:07;;;;;;;18.08;16.17;;;28.30;39.90;;;;;;4905687;29;20278;-50
2021/01/13 05:30:39;;;;;;;19.75;17.80;;;28.40;40.90;;;;;;4916121;29;20257;-53
2021/01/13 05:33:14;;;;;;;18.90;17.05;;;28.30;39.80;;;;;;4905682;29;20238;-54
2021/01/13 05:35:47;;;;;;;17.48;15.63;;;28.40;40.10;;;;;;4916383;29;20233;-49
2021/01/13 05:38:26;;;;;;;18.15;16.35;;;28.50;40.10;;;;;;4931537;29;20290;-56
2021/01/13 05:40:56;;;;;;;17.25;15.57;;;28.50;39.80;;;;;;4941465;28;20916;-50
2021/01/13 05:43:28;;;;;;;16.75;15.02;;;28.60;40.10;;;;;;4970736;28;20315;-54
2021/01/13 05:45:59;;;;;;;17.95;16.02;;;28.60;40.10;;;;;;5014864;28;20230;-53
2021/01/13 05:48:31;;;;;;;18.40;16.52;;;28.60;40.10;;;;;;5025359;28;20649;-53
2021/01/13 05:51:03;;;;;;;18.00;16.30;;;28.70;40.00;;;;;;5028201;28;20238;-51
2021/01/13 05:53:34;;;;;;;17.90;15.85;;;28.80;39.90;;;;;;5026951;28;20230;-53
2021/01/13 05:56:05;;;;;;;16.27;14.68;;;28.90;40.00;;;;;;5002054;28;20383;-53
2021/01/13 05:58:38;;;;;;;16.95;15.07;;;29.00;40.20;;;;;;4991872;28;20253;-50
2021/01/13 06:01:14;;;;;;;19.17;17.35;;;29.00;40.10;;;;;;4969371;28;20331;-50
2021/01/13 06:03:46;;;;;;;17.13;15.30;;;29.10;40.80;;;;;;4925613;28;20299;-51
2021/01/13 06:06:16;;;;;;;15.48;13.98;;;29.20;40.60;;;;;;4929209;29;20238;-49
2021/01/13 06:08:47;;;;;;;18.67;16.63;;;29.20;40.00;;;;;;4872285;28;20248;-49
2021/01/13 06:11:17;;;;;;;20.40;18.20;;;29.30;39.30;;;;;;4924220;29;20241;-49
2021/01/13 06:13:49;;;;;;;21.05;15.85;;;29.30;40.80;;;;;;4913133;29;20249;-51
2021/01/13 06:16:19;;;;;;;22.45;18.48;;;29.30;41.30;;;;;;4912427;29;20238;-52
2021/01/13 06:18:50;;;;;;;18.75;16.65;;;29.30;41.30;;;;;;4854988;29;20240;-51
2021/01/13 06:21:21;;;;;;;16.67;15.07;;;29.40;41.70;;;;;;4853802;29;20236;-53
2021/01/13 06:23:52;;;;;;;23.50;15.90;;;29.40;40.70;;;;;;4853723;29;20264;-53
2021/01/13 06:26:22;;;;;;;26.90;18.90;;;29.40;40.80;;;;;;4855780;29;20232;-53
2021/01/13 06:29:30;;;;;;;24.27;21.48;;;29.40;41.80;;;;;;4855914;29;20232;-56
2021/01/13 06:32:02;;;;;;;25.30;20.73;;;29.40;42.60;;;;;;4855505;29;20244;-54
2021/01/13 06:34:34;;;;;;;22.35;20.05;;;29.30;42.60;;;;;;4872410;29;20310;-52
2021/01/13 06:37:18;;;;;;;25.48;21.67;;;29.30;43.00;;;;;;4874566;29;20645;-53
2021/01/13 06:39:49;;;;;;;25.00;18.52;;;29.20;43.10;;;;;;4886934;29;20242;-52
2021/01/13 06:42:30;;;;;;;22.75;19.52;;;29.10;43.80;;;;;;4891981;29;20339;-49
2021/01/13 06:45:00;;;;;;;21.52;18.73;;;29.10;43.60;;;;;;4933447;28;20240;-54
2021/01/13 06:47:33;;;;;;;21.25;19.08;;;29.10;43.60;;;;;;4941126;28;20241;-50
2021/01/13 06:50:04;;;;;;;19.63;17.25;;;29.10;43.90;;;;;;4953106;28;20231;-55
2021/01/13 06:52:35;;;;;;;19.25;17.27;;;29.10;43.90;;;;;;4960704;28;20233;-49
2021/01/13 06:55:05;;;;;;;25.20;19.10;;;29.10;43.90;;;;;;4957755;28;20308;-52
2021/01/13 06:57:36;;;;;;;19.85;17.75;;;29.10;44.30;;;;;;4955692;28;20228;-54
2021/01/13 07:00:07;;;;;;;21.90;19.60;;;29.20;43.90;;;;;;4959260;28;20241;-56
2021/01/13 07:02:40;;;;;;;21.15;17.95;;;29.20;43.70;;;;;;4959035;28;20322;-53
2021/01/13 07:05:11;;;;;;;18.08;15.88;;;29.20;44.00;;;;;;4959623;28;20236;-55
2021/01/13 07:07:43;;;;;;;20.85;18.25;;;29.20;44.10;;;;;;4960339;28;20241;-56
2021/01/13 07:10:13;;;;;;;23.73;21.20;;;29.30;43.80;;;;;;4956104;28;20314;-57
2021/01/13 07:12:44;;;;;;;21.48;19.15;;;29.20;43.50;;;;;;4969001;28;20236;-54
2021/01/13 07:15:14;;;;;;;21.27;17.55;;;29.10;43.60;;;;;;4962975;28;20270;-49
2021/01/13 07:17:46;;;;;;;21.77;18.77;;;29.20;44.00;;;;;;4957746;28;20689;-50
2021/01/13 07:20:17;;;;;;;22.90;19.13;;;29.20;43.60;;;;;;4964656;28;20285;-50
2021/01/13 07:22:58;;;;;;;21.95;19.08;;;29.10;43.60;;;;;;4955333;28;20236;-49
2021/01/13 07:25:29;;;;;;;20.80;18.58;;;29.10;43.50;;;;;;4962845;28;20240;-51
2021/01/13 07:28:01;;;;;;;21.27;18.98;;;29.10;43.60;;;;;;4962553;28;20263;-49
2021/01/13 07:30:32;;;;;;;18.30;16.38;;;29.00;43.50;;;;;;4961878;28;20244;-50
2021/01/13 07:33:03;;;;;;;21.15;18.73;;;29.10;43.90;;;;;;4963763;28;20220;-50
2021/01/13 07:35:34;;;;;;;19.08;17.08;;;29.10;43.50;;;;;;4961557;28;20232;-49
2021/01/13 07:38:06;;;;;;;19.75;17.48;;;29.10;44.00;;;;;;4960291;28;20234;-51
2021/01/13 07:40:37;;;;;;;18.88;16.95;;;29.10;44.10;;;;;;4958674;28;20241;-51
2021/01/13 07:43:08;;;;;;;20.10;18.00;;;29.10;44.20;;;;;;4968710;28;20232;-54
2021/01/13 07:45:43;;;;;;;21.67;17.92;;;29.20;44.00;;;;;;4992244;28;20225;-54
2021/01/13 07:49:06;;;;;;;20.35;17.13;;;29.20;43.90;;;;;;4956471;28;20294;-53
2021/01/13 07:51:48;;;;;;;22.65;18.10;;;29.20;44.00;;;;;;4958248;28;20220;-49
2021/01/13 07:54:33;;;;;;;19.92;17.80;;;29.30;43.80;;;;;;4964145;28;20309;-50
2021/01/13 07:57:04;;;;;;;22.23;18.20;;;29.30;43.50;;;;;;4970212;28;20240;-49
2021/01/13 07:59:40;;;;;;;18.52;16.08;;;29.30;43.60;;;;;;4969148;28;20311;-50
2021/01/13 08:02:43;;;;;;;18.00;16.20;;;29.30;43.60;;;;;;4969027;28;20228;-53
2021/01/13 08:05:55;;;;;;;18.70;16.73;;;29.40;44.10;;;;;;4984266;28;20236;-53
2021/01/13 08:08:37;;;;;;;18.92;17.08;;;29.40;43.70;;;;;;4925487;28;20312;-52
2021/01/13 08:11:07;;;;;;;20.10;18.10;;;29.40;43.40;;;;;;5006744;28;20669;-52
2021/01/13 08:13:41;;;;;;;20.58;17.67;;;29.40;43.40;;;;;;4951009;29;20229;-49
2021/01/13 08:16:46;;;;;;;25.73;20.65;;;29.40;44.10;;;;;;4930010;29;20337;-52
2021/01/13 08:19:49;;;;;;;18.20;16.20;;;29.50;44.20;;;;;;4869075;29;20228;-52
2021/01/13 08:22:25;;;;;;;20.85;18.65;;;29.50;44.30;;;;;;4867225;29;20318;-56
2021/01/13 08:25:02;;;;;;;18.77;16.98;;;29.50;44.00;;;;;;4859255;29;20243;-56
2021/01/13 08:27:32;;;;;;;19.00;17.00;;;29.50;43.80;;;;;;4863013;29;20588;-56
2021/01/13 08:30:03;;;;;;;19.65;17.15;;;29.50;43.60;;;;;;4864964;29;20232;-53
2021/01/13 08:32:41;;;;;;;17.63;15.77;;;29.60;43.50;;;;;;4861126;29;20438;-55
2021/01/13 08:35:12;;;;;;;21.45;19.25;;;29.60;43.80;;;;;;4861549;29;20230;-55
2021/01/13 08:37:45;;;;;;;22.73;20.42;;;29.60;43.90;;;;;;4867331;29;20228;-56
2021/01/13 08:40:28;;;;;;;19.27;17.38;;;29.60;43.90;;;;;;4886721;29;20231;-55
2021/01/13 08:43:09;;;;;;;20.08;17.25;;;29.50;44.00;;;;;;4885532;29;20325;-55
2021/01/13 08:45:40;;;;;;;21.50;19.35;;;29.50;44.30;;;;;;4959983;28;20287;-57
2021/01/13 08:48:12;;;;;;;18.70;16.80;;;29.50;44.30;;;;;;4960143;28;20756;-57
2021/01/13 08:50:44;;;;;;;18.77;17.02;;;29.40;44.40;;;;;;4976494;28;20236;-55
2021/01/13 08:53:25;;;;;;;18.15;16.33;;;29.40;44.30;;;;;;4979394;28;20230;-51
2021/01/13 08:55:59;;;;;;;21.98;18.98;;;29.50;44.30;;;;;;4962568;28;20233;-55
2021/01/13 08:58:32;;;;;;;20.50;18.00;;;29.50;44.30;;;;;;4959443;28;20310;-57
2021/01/13 09:01:05;;;;;;;24.45;17.92;;;29.50;44.30;;;;;;4956177;28;20295;-56
2021/01/13 09:03:37;;;;;;;19.30;17.23;;;29.60;44.20;;;;;;4968727;28;20278;-56
2021/01/13 09:06:22;;;;;;;19.52;17.02;;;29.50;43.80;;;;;;4964113;28;20237;-54
2021/01/13 09:08:54;;;;;;;20.77;18.77;;;29.50;44.40;;;;;;4970292;28;20344;-55
2021/01/13 09:11:33;;;;;;;21.33;19.13;;;29.50;44.40;;;;;;4965554;28;20266;-54
2021/01/13 09:14:22;;;;;;;20.05;18.02;;;29.50;44.70;;;;;;4963202;28;20235;-54
2021/01/13 09:16:52;;;;;;;18.20;16.50;;;29.60;44.90;;;;;;4955011;28;20689;-52
2021/01/13 09:19:37;;;;;;;19.05;17.23;;;29.60;44.60;;;;;;4957474;28;20232;-49
2021/01/13 09:22:08;;;;;;;26.38;23.65;;;29.60;44.60;;;;;;4967477;28;20239;-56
2021/01/13 09:24:41;;;;;;;22.90;20.70;;;29.60;44.70;;;;;;4970231;28;20237;-52
2021/01/13 09:27:13;;;;;;;20.77;18.88;;;29.60;44.70;;;;;;4957724;28;20248;-55
2021/01/13 09:29:50;;;;;;;18.08;16.17;;;29.60;44.70;;;;;;4973189;28;20237;-51
2021/01/13 09:32:21;;;;;;;18.65;16.38;;;29.60;44.40;;;;;;4964120;28;20654;-54
2021/01/13 09:34:52;;;;;;;19.45;16.45;;;29.60;45.20;;;;;;4967385;28;20701;-52
2021/01/13 09:37:23;;;;;;;16.85;15.13;;;29.60;44.40;;;;;;4969859;28;20236;-52
2021/01/13 09:40:04;;;;;;;18.20;16.30;;;29.70;44.50;;;;;;4962024;28;20232;-53
2021/01/13 09:42:38;;;;;;;18.23;16.08;;;29.70;44.90;;;;;;4971287;28;20233;-52
2021/01/13 09:45:09;;;;;;;19.00;17.10;;;29.70;45.40;;;;;;4964978;28;20233;-50
2021/01/13 09:47:40;;;;;;;21.35;17.23;;;29.70;44.70;;;;;;4967992;28;20315;-52
2021/01/13 09:50:13;;;;;;;17.35;15.55;;;29.70;45.00;;;;;;4960756;28;20323;-53
2021/01/13 09:52:46;;;;;;;18.67;16.67;;;29.80;45.20;;;;;;4971014;28;20236;-52
2021/01/13 09:55:19;;;;;;;19.15;17.17;;;29.70;45.20;;;;;;4962235;28;20271;-52
2021/01/13 09:57:50;;;;;;;20.02;18.02;;;29.70;45.20;;;;;;4958199;28;20249;-51
2021/01/13 10:00:22;;;;;;;18.33;16.52;;;29.70;45.10;;;;;;4917666;28;20738;-50
2021/01/13 10:02:52;;;;;;;21.48;19.27;;;29.70;45.00;;;;;;4922104;28;20243;-50
2021/01/13 10:05:23;;;;;;;19.52;17.52;;;29.70;44.90;;;;;;4931655;28;20299;-49
2021/01/13 10:07:56;;;;;;;17.90;16.02;;;29.70;45.00;;;;;;4872802;28;20637;-49
2021/01/13 10:10:28;;;;;;;18.75;16.15;;;29.80;45.20;;;;;;4872272;29;20352;-54
2021/01/13 10:12:59;;;;;;;19.75;16.55;;;29.70;45.20;;;;;;4872465;29;20297;-55
2021/01/13 10:15:32;;;;;;;18.98;15.95;;;29.70;45.40;;;;;;4871188;29;20236;-51
2021/01/13 10:18:04;;;;;;;21.02;17.05;;;29.70;45.20;;;;;;4869097;28;20240;-51
2021/01/13 10:20:36;;;;;;;17.38;14.63;;;29.80;45.50;;;;;;4867696;29;20232;-51
2021/01/13 10:23:07;;;;;;;16.58;14.88;;;29.80;45.70;;;;;;4871336;28;20278;-56
2021/01/13 10:25:39;;;;;;;17.70;15.27;;;29.90;46.00;;;;;;4878794;28;20588;-56
2021/01/13 10:28:12;;;;;;;17.27;15.00;;;30.10;46.20;;;;;;4870685;29;20315;-53
2021/01/13 10:30:43;;;;;;;16.08;14.30;;;30.30;45.90;;;;;;4886042;29;20238;-52
2021/01/13 10:33:14;;;;;;;17.92;16.02;;;30.50;45.80;;;;;;4925313;28;20238;-53
2021/01/13 10:35:45;;;;;;;17.35;15.55;;;30.70;45.40;;;;;;4927323;29;20693;-52
2021/01/13 10:38:16;;;;;;;16.25;14.55;;;31.00;45.30;;;;;;4936044;28;20224;-56
2021/01/13 10:40:49;;;;;;;16.55;15.00;;;31.20;45.00;;;;;;4963366;28;20613;-51
2021/01/13 10:43:24;;;;;;;16.25;14.55;;;31.30;44.70;;;;;;4986981;28;20236;-52
2021/01/13 10:46:01;;;;;;;19.10;17.10;;;31.40;44.30;;;;;;4962178;28;20595;-51
2021/01/13 10:48:32;;;;;;;19.23;17.30;;;31.50;44.10;;;;;;4962546;28;20255;-52
2021/01/13 10:51:03;;;;;;;20.13;18.00;;;31.50;43.90;;;;;;4961086;28;20244;-49
2021/01/13 10:53:33;;;;;;;20.05;17.60;;;31.50;43.90;;;;;;4961049;28;20264;-50
2021/01/13 10:56:15;;;;;;;18.77;16.88;;;31.40;43.90;;;;;;4965122;28;23171;-52
2021/01/13 10:58:46;;;;;;;17.98;16.23;;;31.30;44.00;;;;;;4992292;28;20237;-50
2021/01/13 11:01:17;;;;;;;18.92;16.50;;;31.20;44.10;;;;;;4961690;28;20688;-51
2021/01/13 11:03:48;;;;;;;16.50;14.90;;;31.00;44.20;;;;;;4957864;28;20664;-54
2021/01/13 11:06:23;;;;;;;18.05;15.07;;;30.90;44.40;;;;;;4964853;28;20681;-55
2021/01/13 11:08:54;;;;;;;21.25;16.50;;;30.70;44.20;;;;;;4954814;28;20294;-53
2021/01/13 11:11:26;;;;;;;16.58;14.90;;;30.50;43.40;;;;;;4959185;28;20775;-51
2021/01/13 11:13:57;;;;;;;20.52;17.42;;;30.30;43.20;;;;;;4951756;28;20332;-53
2021/01/13 11:16:28;;;;;;;19.70;17.63;;;30.20;43.20;;;;;;4960439;28;20312;-50
2021/01/13 11:18:58;;;;;;;19.98;16.52;;;30.00;43.30;;;;;;4961331;28;20236;-50
2021/01/13 11:21:28;;;;;;;21.35;18.05;;;29.80;43.30;;;;;;4959393;28;20233;-54
2021/01/13 11:23:59;;;;;;;23.45;18.42;;;29.60;43.40;;;;;;4965090;28;20315;-50
2021/01/13 11:26:37;;;;;;;18.52;16.58;;;29.50;43.60;;;;;;4960570;28;20568;-51
2021/01/13 11:29:08;;;;;;;19.17;16.58;;;29.30;43.80;;;;;;4959734;28;20282;-51
2021/01/13 11:31:38;;;;;;;17.27;15.48;;;29.20;44.00;;;;;;4956300;28;20324;-55
2021/01/13 11:34:09;;;;;;;19.42;15.73;;;29.10;44.30;;;;;;4958447;28;20256;-55
2021/01/13 11:36:40;;;;;;;17.23;15.27;;;29.00;44.40;;;;;;4958184;28;20242;-55
2021/01/13 11:39:10;;;;;;;17.63;15.85;;;28.90;44.70;;;;;;4917524;28;20319;-54
2021/01/13 11:41:54;;;;;;;18.05;16.23;;;28.80;44.80;;;;;;4914237;28;20333;-52
2021/01/13 11:44:29;;;;;;;21.67;17.73;;;28.80;45.20;;;;;;4922225;28;20241;-55
2021/01/13 11:47:08;;;;;;;31.00;20.45;;;28.60;45.10;;;;;;4946674;28;20724;-54
2021/01/13 11:49:49;;;;;;;31.13;23.80;;;28.50;45.40;;;;;;4931738;28;20245;-55
2021/01/13 11:52:19;;;;;;;36.45;25.33;;;28.50;45.60;;;;;;4938562;28;20246;-52
2021/01/13 11:54:53;;;;;;;32.25;25.08;;;28.30;45.50;;;;;;4914594;28;20245;-54
2021/01/13 11:57:27;;;;;;;27.35;22.35;;;28.30;45.90;;;;;;4914306;29;20304;-54
2021/01/13 11:59:58;;;;;;;36.97;26.80;;;28.20;45.90;;;;;;4909980;28;20276;-55
2021/01/13 12:02:33;;;;;;;40.03;29.25;;;28.10;46.20;;;;;;4933848;28;20249;-51
2021/01/13 12:05:04;;;;;;;37.90;28.63;;;28.10;46.50;;;;;;4955957;28;20475;-53
2021/01/13 12:07:34;;;;;;;36.33;26.90;;;28.00;46.40;;;;;;4956507;28;20320;-54
2021/01/13 12:10:12;;;;;;;38.58;27.98;;;27.90;46.70;;;;;;4962977;28;20647;-55
2021/01/13 12:12:44;;;;;;;34.83;29.52;;;27.90;47.30;;;;;;4983953;28;20228;-55
2021/01/13 12:15:15;;;;;;;38.63;28.17;;;27.80;47.00;;;;;;4968881;28;20552;-53
2021/01/13 12:17:52;;;;;;;38.35;27.92;;;27.80;47.30;;;;;;4954496;28;20237;-52
2021/01/13 12:20:32;;;;;;;33.22;25.45;;;27.80;47.60;;;;;;4965464;28;20731;-52
2021/01/13 12:23:20;;;;;;;30.40;24.05;;;27.70;47.50;;;;;;4962120;28;20320;-55
2021/01/13 12:25:51;;;;;;;32.17;23.88;;;27.70;48.20;;;;;;4955287;28;20267;-52
2021/01/13 12:28:23;;;;;;;33.35;27.08;;;27.60;48.00;;;;;;4960927;28;20237;-55
2021/01/13 12:30:56;;;;;;;28.65;25.55;;;27.60;48.20;;;;;;4913802;29;20280;-54
2021/01/13 12:33:27;;;;;;;27.45;24.50;;;27.60;48.20;;;;;;4916906;29;20262;-52
2021/01/13 12:35:57;;;;;;;26.55;23.52;;;27.60;48.40;;;;;;4913641;28;20312;-53
2021/01/13 12:38:47;;;;;;;26.48;23.55;;;27.50;48.30;;;;;;4877888;28;20232;-51
2021/01/13 12:41:24;;;;;;;24.17;21.70;;;27.50;48.70;;;;;;4894197;28;20236;-52
2021/01/13 12:43:57;;;;;;;25.05;22.27;;;27.50;48.80;;;;;;4903019;28;20239;-54
2021/01/13 12:46:29;;;;;;;24.92;22.27;;;27.40;48.60;;;;;;4886701;28;20259;-52
2021/01/13 12:49:00;;;;;;;28.73;25.65;;;27.40;48.50;;;;;;4879228;28;20231;-53
2021/01/13 12:51:30;;;;;;;25.92;22.58;;;27.40;48.50;;;;;;4883506;28;20322;-54
2021/01/13 12:54:01;;;;;;;25.02;22.38;;;27.40;48.70;;;;;;4885972;28;20706;-51
2021/01/13 12:56:32;;;;;;;26.52;23.67;;;27.30;48.80;;;;;;4939710;28;20655;-60
2021/01/13 12:59:04;;;;;;;28.17;23.60;;;27.30;48.90;;;;;;4942300;28;20676;-50
2021/01/13 13:01:38;;;;;;;24.80;22.20;;;27.30;48.90;;;;;;4942028;28;20236;-54
2021/01/13 13:04:09;;;;;;;31.35;23.77;;;27.30;49.10;;;;;;4965473;28;20235;-53
2021/01/13 13:06:40;;;;;;;28.17;22.80;;;27.30;49.00;;;;;;4963442;28;20232;-53
2021/01/13 13:09:10;;;;;;;26.92;22.27;;;27.30;49.00;;;;;;4979210;28;20243;-54